createdAt,value
2024-01-01T00:00:18.284Z,96273.09
2024-01-01T00:01:20.210Z,96272.47
2024-01-01T00:02:22.065Z,96282.38
2024-01-01T00:03:24.018Z,96291.25
2024-01-01T00:04:27.836Z,96285.69
2024-01-01T00:05:30.460Z,96289.59
2024-01-01T00:06:32.418Z,96284.59
2024-01-01T00:07:34.308Z,96288.38
2024-01-01T00:08:36.188Z,96282.56
2024-01-01T00:09:38.051Z,96290.50
2024-01-01T00:10:39.825Z,96294.66
2024-01-01T00:11:45.010Z,96285.50
2024-01-01T00:12:48.254Z,96287.47
2024-01-01T00:13:50.045Z,96279.72
2024-01-01T00:14:51.782Z,96279.09
2024-01-01T00:15:53.746Z,96276.88
2024-01-01T00:16:55.582Z,96277.22
2024-01-01T00:17:57.632Z,96281.78
2024-01-01T00:18:59.438Z,96275.81
2024-01-01T00:20:02.033Z,96272.59
2024-01-01T00:21:03.929Z,96276.78
2024-01-01T00:22:05.725Z,96286.31
2024-01-01T00:23:07.577Z,96284.91
2024-01-01T00:24:09.619Z,96284.09
2024-01-01T00:25:11.501Z,96294.41
2024-01-01T00:26:14.282Z,96293.09
2024-01-01T00:27:16.133Z,96290.31
2024-01-01T00:28:18.041Z,96287.72
2024-01-01T00:29:25.185Z,96293.28
2024-01-01T00:30:33.790Z,96291.50
2024-01-01T00:31:35.586Z,96303.63
2024-01-01T00:32:38.059Z,96299.25
2024-01-01T00:33:40.214Z,96302.63
2024-01-01T00:34:42.159Z,96301.66
2024-01-01T00:35:44.134Z,96300.03
2024-01-01T00:36:45.877Z,96305.03
2024-01-01T00:37:48.089Z,96304.06
2024-01-01T00:38:51.847Z,96318.56
2024-01-01T00:39:53.685Z,96314.03
2024-01-01T00:40:55.498Z,96309.47
2024-01-01T00:41:57.338Z,96308.50
2024-01-01T00:42:59.147Z,96316.44
2024-01-01T00:44:04.352Z,96312.59
2024-01-01T00:45:06.528Z,96314.03
2024-01-01T00:46:08.427Z,96317.41
2024-01-01T00:47:10.238Z,96322.78
2024-01-01T00:48:13.465Z,96330.69
2024-01-01T00:49:15.389Z,96334.25
2024-01-01T00:50:17.548Z,96331.66
2024-01-01T00:51:19.384Z,96327.31
2024-01-01T00:52:21.328Z,96330.41
2024-01-01T00:53:23.751Z,96328.19
2024-01-01T00:54:29.774Z,96326.41
2024-01-01T00:55:33.279Z,96332.75
2024-01-01T00:56:35.086Z,96336.75
2024-01-01T00:57:36.869Z,96341.75
2024-01-01T00:58:38.705Z,96342.53
2024-01-01T00:59:40.558Z,96342.53
2024-01-01T01:00:42.693Z,96352.88
2024-01-01T01:01:44.592Z,96342.09
2024-01-01T01:02:46.487Z,96346.78
2024-01-01T01:03:51.004Z,96343.59
2024-01-01T01:04:59.748Z,96352.34
2024-01-01T01:06:14.506Z,96345.91
2024-01-01T01:07:23.013Z,96350.47
2024-01-01T01:08:24.861Z,96347.41
2024-01-01T01:09:26.778Z,96342.16
2024-01-01T01:10:28.533Z,96347.31
2024-01-01T01:11:30.301Z,96338.59
2024-01-01T01:12:32.048Z,96342.16
2024-01-01T01:13:34.008Z,96345.09
2024-01-01T01:14:36.701Z,96339.28
2024-01-01T01:15:38.799Z,96345.78
2024-01-01T01:16:40.526Z,96341.63
2024-01-01T01:17:42.480Z,96345.63
2024-01-01T01:18:44.747Z,96340.44
2024-01-01T01:19:46.651Z,96334.50
2024-01-01T01:20:49.918Z,96339.66
2024-01-01T01:21:51.761Z,96337.69
2024-01-01T01:22:53.592Z,96339.47
2024-01-01T01:23:57.146Z,96339.13
2024-01-01T01:24:58.873Z,96341.38
2024-01-01T01:26:00.744Z,96342.78
2024-01-01T01:27:03.866Z,96341.63
2024-01-01T01:28:05.977Z,96348.22
2024-01-01T01:29:08.142Z,96348.56
2024-01-01T01:30:10.991Z,96342.00
2024-01-01T01:31:12.944Z,96343.31
2024-01-01T01:32:14.828Z,96341.53
2024-01-01T01:33:17.648Z,96336.53
2024-01-01T01:34:20.114Z,96334.13
2024-01-01T01:35:21.907Z,96331.38
2024-01-01T01:36:23.823Z,96328.47
2024-01-01T01:37:25.641Z,96330.03
2024-01-01T01:38:27.614Z,96331.03
2024-01-01T01:39:29.938Z,96328.63
2024-01-01T01:40:31.896Z,96331.84
2024-01-01T01:41:33.740Z,96335.84
2024-01-01T01:42:35.556Z,96334.88
2024-01-01T01:43:37.417Z,96329.88
2024-01-01T01:44:39.190Z,96329.06
2024-01-01T01:45:41.283Z,96327.63
2024-01-01T01:46:43.191Z,96332.78
2024-01-01T01:47:45.481Z,96330.56
2024-01-01T01:48:47.498Z,96333.78
2024-01-01T01:49:49.941Z,96340.53
2024-01-01T01:50:52.904Z,96334.13
2024-01-01T01:51:55.816Z,96334.13
2024-01-01T01:52:58.039Z,96331.72
2024-01-01T01:54:00.847Z,96329.75
2024-01-01T01:55:03.484Z,96332.16
2024-01-01T01:56:06.352Z,96325.03
2024-01-01T01:57:08.486Z,96316.69
2024-01-01T01:58:11.213Z,96312.34
2024-01-01T01:59:13.137Z,96310.53
2024-01-01T02:00:15.405Z,96311.06
2024-01-01T02:01:18.405Z,96303.50
2024-01-01T02:02:21.395Z,96303.13
2024-01-01T02:03:24.045Z,96298.78
2024-01-01T02:04:26.293Z,96286.84
2024-01-01T02:05:28.265Z,96292.72
2024-01-01T02:06:32.417Z,96292.44
2024-01-01T02:07:35.944Z,96292.63
2024-01-01T02:08:38.714Z,96300.38
2024-01-01T02:09:40.485Z,96292.44
2024-01-01T02:10:42.442Z,96297.25
2024-01-01T02:11:45.164Z,96297.44
2024-01-01T02:12:47.482Z,96303.94
2024-01-01T02:13:49.282Z,96302.50
2024-01-01T02:14:51.353Z,96303.94
2024-01-01T02:15:53.379Z,96304.72
2024-01-01T02:16:55.199Z,96303.31
2024-01-01T02:17:57.153Z,96300.72
2024-01-01T02:18:59.170Z,96299.13
2024-01-01T02:20:01.968Z,96294.31
2024-01-01T02:21:09.954Z,96298.50
2024-01-01T02:22:11.825Z,96287.03
2024-01-01T02:23:17.902Z,96281.06
2024-01-01T02:24:20.652Z,96282.03
2024-01-01T02:25:22.414Z,96279.09
2024-01-01T02:26:24.132Z,96277.16
2024-01-01T02:27:25.816Z,96268.41
2024-01-01T02:28:28.061Z,96271.16
2024-01-01T02:29:29.919Z,96269.47
2024-01-01T02:30:32.096Z,96267.41
2024-01-01T02:31:33.893Z,96268.66
2024-01-01T02:32:35.938Z,96264.44
2024-01-01T02:33:37.730Z,96255.22
2024-01-01T02:34:39.496Z,96262.94
2024-01-01T02:35:41.317Z,96257.00
2024-01-01T02:36:43.250Z,96252.53
2024-01-01T02:37:45.074Z,96264.13
2024-01-01T02:38:46.933Z,96259.41
2024-01-01T02:39:48.776Z,96270.19
2024-01-01T02:40:50.543Z,96272.25
2024-01-01T02:41:52.361Z,96277.41
2024-01-01T02:42:54.189Z,96279.81
2024-01-01T02:43:56.038Z,96279.81
2024-01-01T02:44:57.958Z,96280.31
2024-01-01T02:46:00.205Z,96281.47
2024-01-01T02:47:02.021Z,96280.94
2024-01-01T02:48:04.120Z,96279.81
2024-01-01T02:49:06.230Z,96271.88
2024-01-01T02:50:08.261Z,96263.63
2024-01-01T02:51:10.132Z,96256.66
2024-01-01T02:52:12.189Z,96246.16
2024-01-01T02:53:14.046Z,96238.22
2024-01-01T02:54:16.229Z,96235.84
2024-01-01T02:55:18.183Z,96227.81
2024-01-01T02:56:21.342Z,96233.50
2024-01-01T02:57:26.645Z,96230.78
2024-01-01T02:58:28.584Z,96221.06
2024-01-01T02:59:30.360Z,96220.88
2024-01-01T03:00:32.348Z,96218.13
2024-01-01T03:01:34.256Z,96218.75
2024-01-01T03:02:36.125Z,96223.09
2024-01-01T03:03:37.991Z,96234.59
2024-01-01T03:04:39.814Z,96235.94
2024-01-01T03:05:42.211Z,96225.41
2024-01-01T03:06:44.024Z,96217.88
2024-01-01T03:07:45.831Z,96202.38
2024-01-01T03:08:47.620Z,96191.06
2024-01-01T03:09:51.061Z,96198.63
2024-01-01T03:10:52.969Z,96208.16
2024-01-01T03:11:54.840Z,96211.88
2024-01-01T03:12:56.563Z,96212.69
2024-01-01T03:13:58.444Z,96210.75
2024-01-01T03:15:01.018Z,96202.00
2024-01-01T03:16:04.247Z,96195.06
2024-01-01T03:17:05.987Z,96206.19
2024-01-01T03:18:08.115Z,96207.16
2024-01-01T03:19:11.342Z,96208.78
2024-01-01T03:20:13.455Z,96195.88
2024-01-01T03:21:15.322Z,96198.81
2024-01-01T03:22:17.144Z,96199.97
2024-01-01T03:23:19.027Z,96186.88
2024-01-01T03:24:20.768Z,96194.63
2024-01-01T03:25:22.460Z,96206.09
2024-01-01T03:26:24.782Z,96208.50
2024-01-01T03:27:26.613Z,96217.88
2024-01-01T03:28:28.566Z,96220.78
2024-01-01T03:29:30.296Z,96206.28
2024-01-01T03:30:32.184Z,96192.38
2024-01-01T03:31:34.045Z,96188.56
2024-01-01T03:32:39.135Z,96191.16
2024-01-01T03:33:40.977Z,96197.94
2024-01-01T03:34:43.766Z,96195.50
2024-01-01T03:35:46.461Z,96200.69
2024-01-01T03:36:50.307Z,96205.84
2024-01-01T03:37:52.097Z,96206.28
2024-01-01T03:38:53.933Z,96207.88
2024-01-01T03:39:56.226Z,96210.00
2024-01-01T03:40:58.217Z,96205.03
2024-01-01T03:42:00.096Z,96209.03
2024-01-01T03:43:02.073Z,96210.47
2024-01-01T03:44:04.097Z,96202.38
2024-01-01T03:45:06.739Z,96200.41
2024-01-01T03:46:08.462Z,96197.63
2024-01-01T03:47:10.459Z,96199.16
2024-01-01T03:48:13.822Z,96203.09
2024-01-01T03:49:15.819Z,96202.72
2024-01-01T03:50:17.883Z,96185.88
2024-01-01T03:51:19.718Z,96182.16
2024-01-01T03:52:21.530Z,96183.94
2024-01-01T03:53:23.341Z,96188.31
2024-01-01T03:54:25.043Z,96194.44
2024-01-01T03:55:26.861Z,96198.53
2024-01-01T03:56:28.615Z,96203.72
2024-01-01T03:57:30.894Z,96200.50
2024-01-01T03:58:32.700Z,96195.69
2024-01-01T03:59:34.483Z,96199.44
2024-01-01T04:00:36.306Z,96198.97
2024-01-01T04:01:38.177Z,96208.13
2024-01-01T04:02:41.507Z,96204.13
2024-01-01T04:03:45.068Z,96201.56
2024-01-01T04:04:47.490Z,96198.97
2024-01-01T04:05:49.815Z,96198.97
2024-01-01T04:06:51.826Z,96198.81
2024-01-01T04:07:53.770Z,96189.91
2024-01-01T04:08:55.663Z,96176.66
2024-01-01T04:09:57.520Z,96168.53
2024-01-01T04:10:59.260Z,96159.00
2024-01-01T04:12:01.045Z,96157.88
2024-01-01T04:13:03.398Z,96167.03
2024-01-01T04:14:05.326Z,96165.25
2024-01-01T04:15:07.292Z,96168.81
2024-01-01T04:16:09.909Z,96159.47
2024-01-01T04:17:12.776Z,96167.19
2024-01-01T04:18:15.141Z,96164.16
2024-01-01T04:19:16.949Z,96166.94
2024-01-01T04:20:18.937Z,96174.59
2024-01-01T04:21:20.779Z,96172.63
2024-01-01T04:22:26.152Z,96179.03
2024-01-01T04:23:28.495Z,96189.28
2024-01-01T04:24:30.755Z,96194.88
2024-01-01T04:25:32.606Z,96201.13
2024-01-01T04:26:34.402Z,96211.09
2024-01-01T04:27:36.493Z,96210.13
2024-01-01T04:28:38.226Z,96205.56
2024-01-01T04:29:40.010Z,96207.97
2024-01-01T04:30:41.783Z,96210.91
2024-01-01T04:31:43.622Z,96210.13
2024-01-01T04:32:45.465Z,96213.31
2024-01-01T04:33:47.568Z,96217.50
2024-01-01T04:34:49.923Z,96215.69
2024-01-01T04:35:54.622Z,96213.75
2024-01-01T04:36:56.389Z,96212.94
2024-01-01T04:37:58.326Z,96215.28
2024-01-01T04:39:01.251Z,96210.63
2024-01-01T04:40:03.623Z,96213.41
2024-01-01T04:41:05.347Z,96212.59
2024-01-01T04:42:07.409Z,96209.66
2024-01-01T04:43:09.193Z,96219.81
2024-01-01T04:44:11.037Z,96219.81
2024-01-01T04:45:12.792Z,96222.56
2024-01-01T04:46:14.674Z,96225.16
2024-01-01T04:47:16.437Z,96228.44
2024-01-01T04:48:18.823Z,96227.66
2024-01-01T04:49:20.964Z,96227.28
2024-01-01T04:50:22.890Z,96216.00
2024-01-01T04:51:24.986Z,96212.06
2024-01-01T04:52:26.801Z,96209.28
2024-01-01T04:53:28.605Z,96208.50
2024-01-01T04:54:30.846Z,96212.50
2024-01-01T04:55:32.586Z,96211.09
2024-01-01T04:56:34.346Z,96218.75
2024-01-01T04:57:36.148Z,96220.16
2024-01-01T04:58:38.067Z,96221.56
2024-01-01T04:59:39.984Z,96220.78
2024-01-01T05:00:41.711Z,96221.78
2024-01-01T05:01:43.686Z,96221.94
2024-01-01T05:02:45.573Z,96220.78
2024-01-01T05:03:47.338Z,96232.72
2024-01-01T05:04:49.132Z,96240.09
2024-01-01T05:05:51.292Z,96214.13
2024-01-01T05:06:53.260Z,96214.03
2024-01-01T05:07:55.088Z,96231.53
2024-01-01T05:08:56.891Z,96229.41
2024-01-01T05:09:58.721Z,96231.81
2024-01-01T05:11:04.560Z,96230.66
2024-01-01T05:12:06.397Z,96227.34
2024-01-01T05:13:08.832Z,96230.41
2024-01-01T05:14:10.863Z,96245.72
2024-01-01T05:15:13.175Z,96248.63
2024-01-01T05:16:15.087Z,96251.75
2024-01-01T05:17:17.874Z,96257.41
2024-01-01T05:18:19.719Z,96250.66
2024-01-01T05:19:21.695Z,96249.03
2024-01-01T05:20:23.572Z,96251.63
2024-01-01T05:21:25.357Z,96247.53
2024-01-01T05:22:27.135Z,96243.38
2024-01-01T05:23:28.856Z,96263.81
2024-01-01T05:24:30.762Z,96267.03
2024-01-01T05:25:32.525Z,96269.28
2024-01-01T05:26:34.360Z,96262.16
2024-01-01T05:27:36.093Z,96250.69
2024-01-01T05:28:38.431Z,96252.28
2024-01-01T05:29:45.807Z,96258.25
2024-01-01T05:30:47.681Z,96264.41
2024-01-01T05:31:49.596Z,96265.53
2024-01-01T05:32:51.494Z,96256.53
2024-01-01T05:33:53.512Z,96249.16
2024-01-01T05:34:56.021Z,96246.84
2024-01-01T05:35:58.006Z,96259.41
2024-01-01T05:36:59.737Z,96261.38
2024-01-01T05:38:01.933Z,96251.38
2024-01-01T05:39:05.118Z,96256.53
2024-01-01T05:40:07.281Z,96253.63
2024-01-01T05:41:13.001Z,96262.63
2024-01-01T05:42:15.289Z,96261.44
2024-01-01T05:43:17.022Z,96264.19
2024-01-01T05:44:18.950Z,96254.59
2024-01-01T05:45:20.700Z,96256.53
2024-01-01T05:46:22.496Z,96250.41
2024-01-01T05:47:24.258Z,96250.59
2024-01-01T05:48:30.172Z,96258.41
2024-01-01T05:49:38.675Z,96275.38
2024-01-01T05:50:40.724Z,96280.53
2024-01-01T05:51:42.562Z,96282.94
2024-01-01T05:52:44.283Z,96260.00
2024-01-01T05:53:46.114Z,96253.69
2024-01-01T05:54:47.906Z,96255.47
2024-01-01T05:55:49.638Z,96264.81
2024-01-01T05:56:51.433Z,96268.81
2024-01-01T05:57:54.649Z,96274.44
2024-01-01T05:58:56.464Z,96272.47
2024-01-01T05:59:58.620Z,96257.00
2024-01-01T06:01:00.522Z,96267.66
2024-01-01T06:02:02.370Z,96273.00
2024-01-01T06:03:07.436Z,96275.13
2024-01-01T06:04:09.189Z,96278.34
2024-01-01T06:05:11.131Z,96282.25
2024-01-01T06:06:13.771Z,96286.63
2024-01-01T06:07:15.643Z,96264.19
2024-01-01T06:08:18.318Z,96271.56
2024-01-01T06:09:20.187Z,96273.19
2024-01-01T06:10:22.044Z,96279.03
2024-01-01T06:11:23.733Z,96279.38
2024-01-01T06:12:25.520Z,96279.84
2024-01-01T06:13:27.259Z,96267.22
2024-01-01T06:14:29.079Z,96271.22
2024-01-01T06:15:31.246Z,96269.63
2024-01-01T06:16:33.029Z,96275.75
2024-01-01T06:17:35.010Z,96278.97
2024-01-01T06:18:37.215Z,96275.59
2024-01-01T06:19:39.101Z,96281.56
2024-01-01T06:20:40.882Z,96275.22
2024-01-01T06:21:42.582Z,96277.47
2024-01-01T06:22:47.244Z,96276.56
2024-01-01T06:23:49.140Z,96284.03
2024-01-01T06:24:51.863Z,96290.16
2024-01-01T06:25:53.707Z,96281.88
2024-01-01T06:26:55.551Z,96280.41
2024-01-01T06:27:57.301Z,96276.84
2024-01-01T06:29:00.424Z,96278.91
2024-01-01T06:30:02.257Z,96284.75
2024-01-01T06:31:04.119Z,96284.03
2024-01-01T06:32:06.249Z,96286.41
2024-01-01T06:33:08.153Z,96289.28
2024-01-01T06:34:10.024Z,96287.50
2024-01-01T06:35:11.912Z,96298.00
2024-01-01T06:36:13.606Z,96287.69
2024-01-01T06:37:16.062Z,96288.31
2024-01-01T06:38:18.723Z,96288.59
2024-01-01T06:39:21.615Z,96301.78
2024-01-01T06:40:23.411Z,96309.53
2024-01-01T06:41:25.371Z,96312.44
2024-01-01T06:42:27.212Z,96315.03
2024-01-01T06:43:29.159Z,96313.59
2024-01-01T06:44:30.919Z,96307.44
2024-01-01T06:45:32.678Z,96301.84
2024-01-01T06:46:34.414Z,96296.41
2024-01-01T06:47:36.609Z,96303.69
2024-01-01T06:48:38.846Z,96310.00
2024-01-01T06:49:40.791Z,96311.25
2024-01-01T06:50:42.525Z,96314.63
2024-01-01T06:51:48.953Z,96307.00
2024-01-01T06:52:50.787Z,96296.50
2024-01-01T06:53:52.699Z,96313.78
2024-01-01T06:54:54.476Z,96317.78
2024-01-01T06:55:56.361Z,96319.72
2024-01-01T06:56:58.174Z,96321.19
2024-01-01T06:58:00.637Z,96336.03
2024-01-01T06:59:02.399Z,96336.22
2024-01-01T07:00:04.652Z,96324.72
2024-01-01T07:01:06.903Z,96335.69
2024-01-01T07:02:08.785Z,96332.56
2024-01-01T07:03:10.743Z,96343.34
2024-01-01T07:04:12.632Z,96356.88
2024-01-01T07:05:14.484Z,96347.03
2024-01-01T07:06:16.456Z,96355.56
2024-01-01T07:07:18.224Z,96361.50
2024-01-01T07:08:19.989Z,96341.31
2024-01-01T07:09:21.743Z,96341.41
2024-01-01T07:10:23.587Z,96349.75
2024-01-01T07:11:25.353Z,96343.66
2024-01-01T07:12:30.189Z,96349.28
2024-01-01T07:13:32.313Z,96359.06
2024-01-01T07:14:34.107Z,96372.81
2024-01-01T07:15:35.934Z,96346.38
2024-01-01T07:16:37.880Z,96339.41
2024-01-01T07:17:39.737Z,96324.88
2024-01-01T07:18:41.580Z,96343.13
2024-01-01T07:19:44.374Z,96349.28
2024-01-01T07:20:46.308Z,96356.03
2024-01-01T07:21:48.897Z,96352.66
2024-01-01T07:22:50.789Z,96357.03
2024-01-01T07:23:52.799Z,96358.66
2024-01-01T07:24:54.506Z,96361.63
2024-01-01T07:25:56.922Z,96365.16
2024-01-01T07:26:59.400Z,96355.19
2024-01-01T07:28:01.202Z,96357.59
2024-01-01T07:29:04.356Z,96354.50
2024-01-01T07:30:06.922Z,96345.44
2024-01-01T07:31:08.775Z,96346.22
2024-01-01T07:32:13.549Z,96337.53
2024-01-01T07:33:15.388Z,96344.75
2024-01-01T07:34:19.885Z,96342.97
2024-01-01T07:35:21.844Z,96343.41
2024-01-01T07:36:24.472Z,96344.84
2024-01-01T07:37:26.728Z,96350.47
2024-01-01T07:38:28.697Z,96355.28
2024-01-01T07:39:31.430Z,96363.38
2024-01-01T07:40:33.225Z,96355.47
2024-01-01T07:41:35.058Z,96354.84
2024-01-01T07:42:37.188Z,96356.78
2024-01-01T07:43:38.940Z,96367.81
2024-01-01T07:44:42.126Z,96366.53
2024-01-01T07:45:43.884Z,96357.03
2024-01-01T07:46:49.360Z,96360.56
2024-01-01T07:47:51.439Z,96349.59
2024-01-01T07:48:53.386Z,96335.91
2024-01-01T07:49:55.240Z,96344.66
2024-01-01T07:50:56.971Z,96364.28
2024-01-01T07:51:58.730Z,96371.25
2024-01-01T07:53:00.727Z,96371.72
2024-01-01T07:54:03.086Z,96353.91
2024-01-01T07:55:05.454Z,96349.22
2024-01-01T07:56:07.594Z,96357.47
2024-01-01T07:57:09.850Z,96342.31
2024-01-01T07:58:11.639Z,96336.53
2024-01-01T07:59:13.574Z,96358.03
2024-01-01T08:00:17.394Z,96362.94
2024-01-01T08:01:19.697Z,96358.41
2024-01-01T08:02:22.805Z,96350.31
2024-01-01T08:03:27.054Z,96361.72
2024-01-01T08:04:28.976Z,96366.72
2024-01-01T08:05:30.947Z,96367.34
2024-01-01T08:06:32.721Z,96363.44
2024-01-01T08:07:34.450Z,96360.69
2024-01-01T08:08:36.289Z,96362.91
2024-01-01T08:09:38.069Z,96361.16
2024-01-01T08:10:39.963Z,96360.00
2024-01-01T08:11:42.214Z,96376.91
2024-01-01T08:12:44.493Z,96362.41
2024-01-01T08:13:47.203Z,96364.78
2024-01-01T08:14:49.458Z,96374.16
2024-01-01T08:15:52.029Z,96376.75
2024-01-01T08:16:53.854Z,96370.41
2024-01-01T08:17:55.911Z,96368.63
2024-01-01T08:18:58.426Z,96366.25
2024-01-01T08:20:00.508Z,96361.88
2024-01-01T08:21:02.840Z,96363.31
2024-01-01T08:22:04.897Z,96360.56
2024-01-01T08:23:06.887Z,96360.88
2024-01-01T08:24:08.664Z,96380.59
2024-01-01T08:25:10.449Z,96386.84
2024-01-01T08:26:12.361Z,96372.59
2024-01-01T08:27:14.325Z,96364.47
2024-01-01T08:28:16.162Z,96369.66
2024-01-01T08:29:18.093Z,96373.09
2024-01-01T08:30:19.984Z,96378.53
2024-01-01T08:31:22.719Z,96380.28
2024-01-01T08:32:24.782Z,96375.75
2024-01-01T08:33:26.571Z,96373.00
2024-01-01T08:34:30.146Z,96388.50
2024-01-01T08:35:33.121Z,96396.06
2024-01-01T08:36:34.845Z,96385.56
2024-01-01T08:37:36.818Z,96395.28
2024-01-01T08:38:38.674Z,96401.56
2024-01-01T08:39:40.896Z,96408.19
2024-01-01T08:40:42.629Z,96401.06
2024-01-01T08:41:45.140Z,96391.16
2024-01-01T08:42:48.705Z,96392.31
2024-01-01T08:43:58.663Z,96406.56
2024-01-01T08:45:00.566Z,96421.09
2024-01-01T08:46:04.670Z,96420.56
2024-01-01T08:47:06.729Z,96407.75
2024-01-01T08:48:11.991Z,96406.25
2024-01-01T08:49:14.283Z,96400.75
2024-01-01T08:50:16.269Z,96396.84
2024-01-01T08:51:18.082Z,96401.38
2024-01-01T08:52:19.838Z,96398.81
2024-01-01T08:53:21.687Z,96405.22
2024-01-01T08:54:24.347Z,96402.44
2024-01-01T08:55:26.741Z,96406.34
2024-01-01T08:56:28.979Z,96415.25
2024-01-01T08:57:31.066Z,96411.44
2024-01-01T08:58:32.792Z,96398.97
2024-01-01T08:59:34.784Z,96414.47
2024-01-01T09:00:36.572Z,96411.34
2024-01-01T09:01:38.456Z,96399.88
2024-01-01T09:02:40.310Z,96402.28
2024-01-01T09:03:42.249Z,96412.28
2024-01-01T09:04:44.059Z,96419.19
2024-01-01T09:05:46.268Z,96428.28
2024-01-01T09:06:48.183Z,96416.25
2024-01-01T09:07:50.020Z,96432.53
2024-01-01T09:08:51.778Z,96429.81
2024-01-01T09:09:53.633Z,96438.34
2024-01-01T09:10:55.431Z,96439.75
2024-01-01T09:11:57.613Z,96450.72
2024-01-01T09:12:59.492Z,96444.13
2024-01-01T09:14:03.072Z,96443.78
2024-01-01T09:15:05.345Z,96454.09
2024-01-01T09:16:07.181Z,96475.13
2024-01-01T09:17:09.556Z,96469.78
2024-01-01T09:18:12.315Z,96463.94
2024-01-01T09:19:16.445Z,96447.75
2024-01-01T09:20:18.333Z,96444.97
2024-01-01T09:21:20.953Z,96446.66
2024-01-01T09:22:22.946Z,96449.31
2024-01-01T09:23:28.058Z,96454.94
2024-01-01T09:24:29.830Z,96451.19
2024-01-01T09:25:31.688Z,96458.94
2024-01-01T09:26:33.732Z,96456.00
2024-01-01T09:27:35.567Z,96448.69
2024-01-01T09:28:38.096Z,96439.78
2024-01-01T09:29:39.903Z,96444.97
2024-01-01T09:30:41.976Z,96451.75
2024-01-01T09:31:43.986Z,96453.16
2024-01-01T09:32:45.838Z,96458.00
2024-01-01T09:33:50.873Z,96458.47
2024-01-01T09:34:52.677Z,96450.34
2024-01-01T09:35:56.544Z,96445.97
2024-01-01T09:37:03.887Z,96452.94
2024-01-01T09:38:06.835Z,96450.34
2024-01-01T09:39:09.246Z,96459.50
2024-01-01T09:40:11.919Z,96463.56
2024-01-01T09:41:14.475Z,96449.63
2024-01-01T09:42:16.400Z,96448.47
2024-01-01T09:43:19.476Z,96454.72
2024-01-01T09:44:22.124Z,96450.66
2024-01-01T09:45:25.330Z,96449.66
2024-01-01T09:46:29.929Z,96451.44
2024-01-01T09:47:32.784Z,96447.69
2024-01-01T09:48:34.814Z,96453.16
2024-01-01T09:49:36.965Z,96462.69
2024-01-01T09:50:38.751Z,96461.53
2024-01-01T09:51:41.328Z,96462.31
2024-01-01T09:52:43.148Z,96454.75
2024-01-01T09:53:45.812Z,96458.78
2024-01-01T09:54:47.515Z,96448.06
2024-01-01T09:55:53.153Z,96452.25
2024-01-01T09:56:55.091Z,96451.72
2024-01-01T09:57:57.053Z,96462.53
2024-01-01T09:58:59.776Z,96458.59
2024-01-01T10:00:06.647Z,96460.63
2024-01-01T10:01:13.306Z,96458.34
2024-01-01T10:02:15.421Z,96455.47
2024-01-01T10:03:17.396Z,96461.81
2024-01-01T10:04:22.376Z,96443.94
2024-01-01T10:05:25.027Z,96443.22
2024-01-01T10:06:27.118Z,96453.28
2024-01-01T10:07:29.575Z,96454.34
2024-01-01T10:08:31.508Z,96454.53
2024-01-01T10:09:34.327Z,96458.97
2024-01-01T10:10:36.223Z,96440.75
2024-01-01T10:11:45.907Z,96452.16
2024-01-01T10:12:47.715Z,96446.97
2024-01-01T10:13:50.977Z,96442.06
2024-01-01T10:14:53.159Z,96447.38
2024-01-01T10:15:58.095Z,96445.91
2024-01-01T10:17:13.459Z,96441.78
2024-01-01T10:18:16.778Z,96444.41
2024-01-01T10:19:19.208Z,96447.31
2024-01-01T10:20:21.184Z,96447.19
2024-01-01T10:21:27.136Z,96441.63
2024-01-01T10:22:32.795Z,96441.06
2024-01-01T10:23:34.817Z,96437.53
2024-01-01T10:24:36.673Z,96426.78
2024-01-01T10:25:38.534Z,96433.59
2024-01-01T10:26:43.958Z,96441.53
2024-01-01T10:27:47.638Z,96442.34
2024-01-01T10:28:49.596Z,96440.78
2024-01-01T10:29:51.510Z,96425.25
2024-01-01T10:30:53.622Z,96435.09
2024-01-01T10:31:55.813Z,96432.91
2024-01-01T10:32:58.516Z,96429.56
2024-01-01T10:34:03.972Z,96428.81
2024-01-01T10:35:06.245Z,96430.22
2024-01-01T10:36:08.320Z,96425.03
2024-01-01T10:37:10.046Z,96426.69
2024-01-01T10:38:15.413Z,96417.53
2024-01-01T10:39:18.928Z,96414.56
2024-01-01T10:40:21.716Z,96425.53
2024-01-01T10:41:23.805Z,96417.97
2024-01-01T10:42:32.340Z,96415.38
2024-01-01T10:43:35.016Z,96432.59
2024-01-01T10:44:37.225Z,96432.75
2024-01-01T10:45:39.462Z,96439.94
2024-01-01T10:46:43.246Z,96441.13
2024-01-01T10:47:46.458Z,96449.28
2024-01-01T10:48:48.655Z,96446.09
2024-01-01T10:49:54.700Z,96453.88
2024-01-01T10:51:04.755Z,96443.72
2024-01-01T10:52:25.347Z,96459.47
2024-01-01T10:53:36.901Z,96444.31
2024-01-01T10:54:38.681Z,96451.28
2024-01-01T10:55:46.221Z,96453.88
2024-01-01T10:57:08.233Z,96451.88
2024-01-01T10:58:22.152Z,96448.50
2024-01-01T10:59:27.000Z,96445.13
2024-01-01T11:00:31.577Z,96453.88
2024-01-01T11:01:33.989Z,96447.91
2024-01-01T11:02:36.429Z,96446.69
2024-01-01T11:03:38.917Z,96448.31
2024-01-01T11:04:40.780Z,96441.13
2024-01-01T11:05:42.861Z,96441.56
2024-01-01T11:06:46.403Z,96446.53
2024-01-01T11:07:54.443Z,96442.34
2024-01-01T11:08:56.984Z,96451.53
2024-01-01T11:09:59.356Z,96449.19
2024-01-01T11:11:21.085Z,96440.81
2024-01-01T11:12:34.118Z,96434.22
2024-01-01T11:13:36.095Z,96438.03
2024-01-01T11:14:43.808Z,96447.41
2024-01-01T11:15:47.151Z,96433.25
2024-01-01T11:17:00.759Z,96436.84
2024-01-01T11:18:15.445Z,96432.50
2024-01-01T11:19:36.828Z,96437.88
2024-01-01T11:20:51.664Z,96433.53
2024-01-01T11:21:53.482Z,96428.75
2024-01-01T11:22:55.247Z,96426.94
2024-01-01T11:24:19.500Z,96414.56
2024-01-01T11:25:29.348Z,96420.16
2024-01-01T11:26:33.577Z,96422.16
2024-01-01T11:27:36.138Z,96417.56
2024-01-01T11:28:42.678Z,96416.97
2024-01-01T11:29:44.509Z,96418.16
2024-01-01T11:30:47.311Z,96426.78
2024-01-01T11:31:49.180Z,96418.16
2024-01-01T11:32:51.413Z,96421.78
2024-01-01T11:34:27.087Z,96428.59
2024-01-01T11:35:29.797Z,96430.97
2024-01-01T11:36:32.156Z,96423.41
2024-01-01T11:37:34.291Z,96415.00
2024-01-01T11:38:36.878Z,96420.19
2024-01-01T11:39:39.179Z,96420.56
2024-01-01T11:40:40.937Z,96414.00
2024-01-01T11:41:42.786Z,96417.81
2024-01-01T11:42:44.561Z,96420.41
2024-01-01T11:43:46.264Z,96428.00
2024-01-01T11:44:48.069Z,96437.59
2024-01-01T11:45:56.533Z,96436.19
2024-01-01T11:47:04.728Z,96431.97
2024-01-01T11:48:07.172Z,96424.38
2024-01-01T11:49:09.826Z,96419.81
2024-01-01T11:50:12.675Z,96429.38
2024-01-01T11:51:14.406Z,96424.19
2024-01-01T11:52:18.432Z,96414.22
2024-01-01T11:53:20.450Z,96428.00
2024-01-01T11:54:22.930Z,96426.97
2024-01-01T11:55:29.127Z,96425.59
2024-01-01T11:56:30.948Z,96431.97
2024-01-01T11:57:32.947Z,96433.59
2024-01-01T11:58:35.061Z,96429.00
2024-01-01T11:59:39.189Z,96425.38
2024-01-01T12:00:41.852Z,96417.00
2024-01-01T12:01:44.928Z,96424.78
2024-01-01T12:02:47.026Z,96427.38
2024-01-01T12:03:50.659Z,96422.78
2024-01-01T12:04:55.154Z,96427.81
2024-01-01T12:06:04.186Z,96422.59
2024-01-01T12:07:06.248Z,96424.22
2024-01-01T12:08:14.219Z,96421.63
2024-01-01T12:09:16.168Z,96424.59
2024-01-01T12:10:19.403Z,96425.41
2024-01-01T12:11:21.227Z,96433.41
2024-01-01T12:12:23.053Z,96423.41
2024-01-01T12:13:24.823Z,96431.00
2024-01-01T12:14:29.469Z,96429.78
2024-01-01T12:15:31.957Z,96430.41
2024-01-01T12:16:34.827Z,96428.19
2024-01-01T12:17:46.705Z,96422.63